createdAt,value
2018-11-21T01:09:34.133Z,17.10
2018-11-21T01:15:20.497Z,21.23
2018-11-21T01:20:51.382Z,18.33
2018-11-21T01:35:00.420Z,23.97
2018-11-21T01:49:18.937Z,23.53
2018-11-21T01:54:50.635Z,27.83
2018-11-21T02:06:20.210Z,27.83
2018-11-21T02:09:02.033Z,23.00
2018-11-21T02:14:39.589Z,24.33
2018-11-21T02:17:09.846Z,23.13
2018-11-21T03:07:49.938Z,24.33
2018-11-21T03:19:12.201Z,29.53
2018-11-21T03:21:53.486Z,32.00
2018-11-21T03:24:35.340Z,23.47
2018-11-21T03:27:17.116Z,28.53
2018-11-21T03:29:58.265Z,26.03
2018-11-21T03:32:40.037Z,32.67
2018-11-21T03:35:21.605Z,29.97
2018-11-21T03:38:02.935Z,31.50
2018-11-21T03:40:44.248Z,27.67
2018-11-21T03:43:26.113Z,28.93
2018-11-21T03:46:08.010Z,27.20
2018-11-21T03:48:49.147Z,24.97
2018-11-21T03:51:30.823Z,22.33
2018-11-21T03:54:12.245Z,22.37
2018-11-21T03:56:53.525Z,27.60
2018-11-21T03:59:35.141Z,23.80
2018-11-21T04:02:16.284Z,24.60
2018-11-21T04:04:57.158Z,22.60
2018-11-21T04:07:38.905Z,25.17
2018-11-21T04:10:20.241Z,17.87
2018-11-21T04:13:02.332Z,22.70
2018-11-21T04:18:54.913Z,21.30
2018-11-21T04:21:35.919Z,19.73
2018-11-21T04:24:17.313Z,19.60
2018-11-21T04:26:58.419Z,17.70
2018-11-21T04:29:39.453Z,15.07
2018-11-21T04:32:10.063Z,14.87
2018-11-21T04:35:00.153Z,19.73
2018-11-21T04:37:41.201Z,21.03
2018-11-21T04:40:22.473Z,16.33
2018-11-21T04:43:03.761Z,16.53
2018-11-21T04:45:45.287Z,17.27
2018-11-21T04:48:26.551Z,19.53
2018-11-21T04:51:08.141Z,13.17
2018-11-21T04:53:50.337Z,15.13
2018-11-21T04:56:31.259Z,13.97
2018-11-21T04:59:12.622Z,12.10
2018-11-21T05:04:57.665Z,15.03
2018-11-21T05:09:11.003Z,15.27
2018-11-21T05:11:40.046Z,14.53
2018-11-21T05:14:09.048Z,10.00
2018-11-21T05:16:58.073Z,12.43
2018-11-21T05:19:38.622Z,9.53
2018-11-21T05:22:19.853Z,9.50
2018-11-21T05:24:48.865Z,10.97
2018-11-21T05:27:37.082Z,9.40
2018-11-21T05:30:26.484Z,10.17
2018-11-21T05:33:07.333Z,15.73
2018-11-21T05:35:48.639Z,12.37
2018-11-21T05:38:29.777Z,9.53
2018-11-21T05:41:10.907Z,8.40
2018-11-21T05:43:52.387Z,10.60
2018-11-21T05:46:33.573Z,9.63
2018-11-21T05:49:14.966Z,8.27
2018-11-21T05:51:56.686Z,10.83
2018-11-21T05:54:37.336Z,8.60
2018-11-21T05:57:18.167Z,10.47
2018-11-21T05:59:59.371Z,9.27
2018-11-21T06:02:41.039Z,11.10
2018-11-21T06:05:22.172Z,11.60
2018-11-21T06:08:03.637Z,10.73
2018-11-21T06:10:44.633Z,9.23
2018-11-21T06:13:26.759Z,9.90
2018-11-21T06:16:07.790Z,11.10
2018-11-21T06:18:48.891Z,10.43
2018-11-21T06:24:27.708Z,14.87
2018-11-21T06:27:15.899Z,14.93
2018-11-21T06:29:57.036Z,10.90
2018-11-21T06:32:37.951Z,19.17
2018-11-21T06:35:19.060Z,15.27
2018-11-21T06:37:59.966Z,17.13
2018-11-21T06:40:40.578Z,14.33
2018-11-21T06:43:21.632Z,21.83
2018-11-21T06:46:02.294Z,17.67
2018-11-21T06:48:43.525Z,30.87
2018-11-21T06:51:24.696Z,20.00
2018-11-21T06:54:06.694Z,20.43
2018-11-21T06:56:47.811Z,19.77
2018-11-21T06:59:29.139Z,24.63
2018-11-21T07:01:58.149Z,27.37
2018-11-21T07:04:46.399Z,22.00
2018-11-21T07:07:27.059Z,34.97
2018-11-21T07:10:08.141Z,17.87
2018-11-21T07:12:49.253Z,35.80
2018-11-21T07:15:30.660Z,23.60
2018-11-21T07:18:11.628Z,46.53
2018-11-21T07:20:52.788Z,26.00
2018-11-21T07:23:34.244Z,29.73
2018-11-21T07:26:14.994Z,34.60
2018-11-21T07:28:56.091Z,48.53
2018-11-21T07:31:36.752Z,25.90
2018-11-21T07:34:17.885Z,27.30
2018-11-21T07:36:58.852Z,20.40
2018-11-21T07:39:40.592Z,26.80
2018-11-21T07:42:21.630Z,26.30
2018-11-21T07:45:02.260Z,31.50
2018-11-21T07:47:43.990Z,23.77
2018-11-21T07:50:15.185Z,23.60
2018-11-21T07:52:44.281Z,17.83
2018-11-21T07:55:32.477Z,23.70
2018-11-21T07:58:22.551Z,20.63
2018-11-21T08:01:22.830Z,25.10
2018-11-21T08:04:06.431Z,25.60
2018-11-21T08:06:50.078Z,18.37
2018-11-21T08:09:31.522Z,19.97
2018-11-21T08:12:29.342Z,20.13
2018-11-21T08:15:32.335Z,28.03
2018-11-21T08:18:35.112Z,24.83
2018-11-21T08:21:36.190Z,20.57
2018-11-21T08:24:42.108Z,33.67
2018-11-21T08:27:41.142Z,36.87
2018-11-21T08:30:21.721Z,26.50
2018-11-21T08:33:02.702Z,26.27
2018-11-21T08:35:43.924Z,27.30
2018-11-21T08:38:24.693Z,34.53
2018-11-21T08:41:06.556Z,32.30
2018-11-21T08:43:47.907Z,23.27
2018-11-21T08:46:28.481Z,81.83
2018-11-21T08:49:09.727Z,83.47
2018-11-21T08:51:50.490Z,151.27
2018-11-21T08:54:31.130Z,37.10
2018-11-21T08:57:12.401Z,68.97
2018-11-21T08:59:53.724Z,41.20
2018-11-21T09:02:34.849Z,27.63
2018-11-21T09:05:15.628Z,31.20
2018-11-21T09:07:59.593Z,33.27
2018-11-21T09:13:15.901Z,91.77
2018-11-21T09:16:04.317Z,76.53
2018-11-21T09:18:45.906Z,107.33
2018-11-21T09:21:26.806Z,24.40
2018-11-21T09:24:08.225Z,31.27
2018-11-21T09:26:49.370Z,30.30
2018-11-21T09:29:30.447Z,48.10
2018-11-21T09:32:11.561Z,46.70
2018-11-21T09:34:52.223Z,33.33
2018-11-21T09:37:33.168Z,27.17
2018-11-21T09:40:16.169Z,84.70
2018-11-21T09:42:57.482Z,58.87
2018-11-21T09:45:38.318Z,84.97
2018-11-21T09:48:19.335Z,33.77
2018-11-21T09:51:00.667Z,47.73
2018-11-21T09:53:42.011Z,32.77
2018-11-21T09:56:23.915Z,23.13
2018-11-21T09:59:04.910Z,39.87
2018-11-21T10:01:46.230Z,40.50
2018-11-21T10:04:27.769Z,69.00
2018-11-21T10:07:08.708Z,36.30
2018-11-21T10:09:50.840Z,54.77
2018-11-21T10:12:31.793Z,54.53
2018-11-21T10:15:13.130Z,55.50
2018-11-21T10:17:54.012Z,62.57
2018-11-21T10:20:37.193Z,114.40
2018-11-21T10:23:18.335Z,39.40
2018-11-21T10:25:59.165Z,93.47
2018-11-21T10:28:49.102Z,60.43
2018-11-21T10:31:18.582Z,43.97
2018-11-21T10:33:47.619Z,29.30
2018-11-21T10:36:35.799Z,85.70
2018-11-21T10:39:24.059Z,82.87
2018-11-21T10:42:05.311Z,163.03
2018-11-21T10:44:46.686Z,78.27
2018-11-21T10:47:27.733Z,132.47
2018-11-21T10:50:08.672Z,47.57
2018-11-21T10:52:50.174Z,43.60
2018-11-21T10:55:31.962Z,86.43
2018-11-21T10:58:12.879Z,82.87
2018-11-21T11:04:03.516Z,193.27
2018-11-21T11:07:04.896Z,113.07
2018-11-21T11:13:11.963Z,69.73
2018-11-21T11:16:15.336Z,75.50
2018-11-21T11:19:21.321Z,70.40
2018-11-21T11:22:23.106Z,90.37
2018-11-21T11:25:23.297Z,51.00
2018-11-21T11:28:24.849Z,132.93
2018-11-21T11:31:28.314Z,61.63
2018-11-21T11:34:31.335Z,69.47
2018-11-21T11:37:32.397Z,164.87
2018-11-21T11:40:35.200Z,87.83
2018-11-21T11:46:29.069Z,58.90
2018-11-21T11:49:36.289Z,110.53
2018-11-21T11:55:40.055Z,75.30
2018-11-21T11:58:28.126Z,117.43
2018-11-21T12:01:35.336Z,153.13
2018-11-21T12:04:38.743Z,170.00
2018-11-21T12:07:39.724Z,174.83
2018-11-21T12:10:28.493Z,142.87
2018-11-21T12:13:35.886Z,168.80
2018-11-21T12:19:47.178Z,254.07
2018-11-21T12:22:54.362Z,92.80
2018-11-21T12:25:57.184Z,206.20
2018-11-21T12:28:58.287Z,208.00
2018-11-21T12:35:05.333Z,181.73
2018-11-21T12:44:10.339Z,200.07
2018-11-21T12:47:11.547Z,74.77
2018-11-21T12:50:12.573Z,153.23
2018-11-21T12:53:01.661Z,220.57
2018-11-21T12:55:59.951Z,90.00
2018-11-21T12:58:48.361Z,196.80
2018-11-21T13:01:55.800Z,155.40
2018-11-21T13:04:59.291Z,133.83
2018-11-21T13:10:57.331Z,282.20
2018-11-21T13:16:56.675Z,152.70
2018-11-21T13:20:02.751Z,230.27
2018-11-21T13:23:03.761Z,140.63
2018-11-21T13:26:04.841Z,111.07
2018-11-21T13:32:09.767Z,93.87
2018-11-21T13:38:14.911Z,122.33
2018-11-21T13:41:16.572Z,71.03
2018-11-21T13:47:13.183Z,89.13
2018-11-21T13:50:14.527Z,88.10
2018-11-21T13:53:15.991Z,153.77
2018-11-21T13:56:04.307Z,123.43
2018-11-21T13:58:52.577Z,69.73
2018-11-21T14:01:33.923Z,92.17
2018-11-21T14:07:27.033Z,87.47
2018-11-21T14:10:08.301Z,76.53
2018-11-21T14:12:49.253Z,67.37
2018-11-21T14:15:29.863Z,94.93
2018-11-21T14:18:10.726Z,76.93
2018-11-21T14:23:46.179Z,82.20
2018-11-21T14:26:27.338Z,83.90
2018-11-21T14:29:09.586Z,119.73
2018-11-21T14:31:50.614Z,106.73
2018-11-21T14:34:31.643Z,50.90
2018-11-21T14:37:12.589Z,107.40
2018-11-21T14:39:53.813Z,67.40
2018-11-21T14:42:35.015Z,73.37
2018-11-21T14:45:17.604Z,88.97
2018-11-21T14:47:58.176Z,71.17
2018-11-21T14:50:39.719Z,98.13
2018-11-21T14:53:08.778Z,90.07
2018-11-21T14:55:56.983Z,113.40
2018-11-21T14:58:37.619Z,103.53
2018-11-21T15:01:18.401Z,121.80
2018-11-21T15:03:59.795Z,98.30
2018-11-21T15:09:22.564Z,82.47
2018-11-21T15:12:10.864Z,49.90
2018-11-21T15:14:52.001Z,49.30
2018-11-21T15:17:33.227Z,52.80
2018-11-21T15:20:15.894Z,51.30
2018-11-21T15:22:56.560Z,58.60
2018-11-21T15:25:37.451Z,60.60
2018-11-21T15:28:18.635Z,71.60
2018-11-21T15:30:59.847Z,124.63
2018-11-21T15:33:28.894Z,164.67
2018-11-21T15:39:12.079Z,88.50
2018-11-21T15:42:00.343Z,63.50
2018-11-21T15:44:41.667Z,69.30
2018-11-21T15:47:22.969Z,64.03
2018-11-21T15:49:52.059Z,65.83
2018-11-21T15:52:23.117Z,64.90
2018-11-21T15:54:52.781Z,141.50
2018-11-21T16:00:31.631Z,98.17
2018-11-21T16:03:19.875Z,62.33
2018-11-21T16:06:08.057Z,56.30
2018-11-21T16:08:49.103Z,65.20
2018-11-21T16:11:29.629Z,177.60
2018-11-21T16:14:10.733Z,79.33
2018-11-21T16:16:52.187Z,55.57
2018-11-21T16:19:33.238Z,185.07
2018-11-21T16:22:14.716Z,139.93
2018-11-21T16:24:55.799Z,117.57
2018-11-21T16:27:37.206Z,69.17
2018-11-21T16:30:19.649Z,139.17
2018-11-21T16:32:48.669Z,117.97
2018-11-21T16:35:36.876Z,75.77
2018-11-21T16:38:25.125Z,164.60
2018-11-21T16:41:06.698Z,115.47
2018-11-21T16:43:47.511Z,188.43
2018-11-21T16:46:29.321Z,149.83
2018-11-21T16:49:11.429Z,144.80
2018-11-21T16:51:52.021Z,125.53
2018-11-21T16:54:33.472Z,103.67
2018-11-21T16:57:14.857Z,253.90
2018-11-21T16:59:59.996Z,140.90
2018-11-21T17:02:53.303Z,97.03
2018-11-21T17:08:49.402Z,93.77
2018-11-21T17:11:30.182Z,74.97
2018-11-21T17:14:11.338Z,68.83
2018-11-21T17:16:52.565Z,115.97
2018-11-21T17:19:33.368Z,154.50
2018-11-21T17:22:14.623Z,136.90
2018-11-21T17:24:55.993Z,280.60
2018-11-21T17:27:27.070Z,358.30
2018-11-21T17:33:11.361Z,306.83
2018-11-21T17:35:52.606Z,391.20
2018-11-21T17:38:33.951Z,381.57
2018-11-21T17:41:14.975Z,163.57
2018-11-21T17:43:56.098Z,298.27
2018-11-21T17:49:20.772Z,356.43
2018-11-21T17:52:09.023Z,415.33
2018-11-21T17:54:50.572Z,387.13
2018-11-21T17:57:31.665Z,393.37
2018-11-21T18:00:12.567Z,242.87
2018-11-21T18:02:53.773Z,334.47
2018-11-21T18:05:36.281Z,543.13
2018-11-21T18:08:17.313Z,358.47
2018-11-21T18:10:58.036Z,210.63
2018-11-21T18:13:48.645Z,402.63
2018-11-21T18:16:29.741Z,206.50
2018-11-21T18:19:10.724Z,253.67
2018-11-21T18:21:51.537Z,244.37
2018-11-21T18:24:32.701Z,356.63
2018-11-21T18:27:13.825Z,390.03
2018-11-21T18:29:55.038Z,228.93
2018-11-21T18:32:24.042Z,401.60
2018-11-21T18:34:52.953Z,350.03
2018-11-21T18:37:41.511Z,468.33
2018-11-21T18:40:30.951Z,526.57
2018-11-21T18:43:11.813Z,129.43
2018-11-21T18:45:52.895Z,335.43
2018-11-21T18:48:34.073Z,340.97
2018-11-21T18:51:15.531Z,343.20
2018-11-21T18:53:57.107Z,365.57
2018-11-21T18:56:38.359Z,267.53
2018-11-21T18:59:19.693Z,159.60
2018-11-21T19:04:45.471Z,253.37
2018-11-21T19:07:26.721Z,192.63
2018-11-21T19:10:07.861Z,167.03
2018-11-21T19:12:48.810Z,149.80
2018-11-21T19:15:29.979Z,150.73
2018-11-21T19:18:11.605Z,85.90
2018-11-21T19:20:52.800Z,122.10
2018-11-21T19:23:34.060Z,160.53
2018-11-21T19:26:14.738Z,173.00
2018-11-21T19:28:55.456Z,196.30
2018-11-21T19:31:36.133Z,123.67
2018-11-21T19:34:17.181Z,124.57
2018-11-21T19:36:58.171Z,233.50
2018-11-21T19:39:39.132Z,199.07
2018-11-21T19:42:20.283Z,264.63
2018-11-21T19:44:59.553Z,213.10
2018-11-21T19:47:41.161Z,251.87
2018-11-21T19:50:22.471Z,214.37
2018-11-21T19:53:03.487Z,269.60
2018-11-21T19:55:44.673Z,224.37
2018-11-21T19:58:25.506Z,348.77
2018-11-21T20:01:06.316Z,247.33
2018-11-21T20:03:47.443Z,507.73
2018-11-21T20:06:28.755Z,311.80
2018-11-21T20:09:11.086Z,357.40
2018-11-21T20:11:52.267Z,386.17
2018-11-21T20:14:33.475Z,374.97
2018-11-21T20:17:14.621Z,432.73
2018-11-21T20:19:55.797Z,396.97
2018-11-21T20:22:36.660Z,291.67
2018-11-21T20:25:18.819Z,185.27
2018-11-21T20:27:59.899Z,145.53
2018-11-21T20:30:30.865Z,219.97
2018-11-21T20:39:31.601Z,451.13
2018-11-21T20:42:12.098Z,494.33
2018-11-21T20:44:52.944Z,445.17
2018-11-21T20:47:34.464Z,415.40
2018-11-21T20:50:15.314Z,231.70
2018-11-21T20:52:56.741Z,255.23
2018-11-21T20:55:39.060Z,284.13
2018-11-21T20:58:20.057Z,379.57
2018-11-21T21:01:08.361Z,535.63
2018-11-21T21:03:49.226Z,569.87
2018-11-21T21:06:30.733Z,550.87
2018-11-21T21:09:13.509Z,397.27
2018-11-21T21:11:54.887Z,584.47
2018-11-21T21:14:35.873Z,470.07
2018-11-21T21:17:04.943Z,676.00
2018-11-21T21:19:33.991Z,560.13
2018-11-21T21:22:22.672Z,599.03
2018-11-21T21:25:03.928Z,527.27
2018-11-21T21:27:44.593Z,416.47
2018-11-21T21:30:27.034Z,631.67
2018-11-21T21:33:08.359Z,545.50
2018-11-21T21:38:33.289Z,527.17
2018-11-21T21:41:12.933Z,630.17
2018-11-21T21:43:53.557Z,308.37
2018-11-21T21:46:34.981Z,333.73
2018-11-21T21:52:04.129Z,597.60
2018-11-21T21:54:44.753Z,671.63
2018-11-21T21:57:26.763Z,500.03
2018-11-21T22:00:07.969Z,343.53
2018-11-21T22:02:49.419Z,490.80
2018-11-21T22:05:30.939Z,182.77
2018-11-21T22:08:12.381Z,345.10
2018-11-21T22:10:53.252Z,219.03
2018-11-21T22:13:34.160Z,336.97
2018-11-21T22:16:15.648Z,297.27
2018-11-21T22:18:56.409Z,435.97
2018-11-21T22:21:37.067Z,178.17
2018-11-21T22:24:18.287Z,377.23
2018-11-21T22:26:59.823Z,452.20
2018-11-21T22:29:48.052Z,328.17
2018-11-21T22:32:36.275Z,360.47
2018-11-21T22:35:18.856Z,457.33
2018-11-21T22:37:59.544Z,528.73
2018-11-21T22:43:28.442Z,604.37
2018-11-21T22:46:09.491Z,579.80
2018-11-21T22:48:50.810Z,554.10
2018-11-21T22:54:35.162Z,405.43
2018-11-21T22:57:16.352Z,265.30
2018-11-21T22:59:57.981Z,597.40
2018-11-21T23:02:38.863Z,457.10
2018-11-21T23:05:20.565Z,462.50
2018-11-21T23:08:01.763Z,406.67
2018-11-21T23:10:42.517Z,515.47
2018-11-21T23:13:23.847Z,422.53
2018-11-21T23:16:05.203Z,346.53
2018-11-21T23:18:46.027Z,426.00
2018-11-21T23:21:27.109Z,280.07
2018-11-21T23:24:08.562Z,234.87
2018-11-21T23:26:49.633Z,288.00
2018-11-21T23:29:30.731Z,216.80
2018-11-21T23:32:11.449Z,148.73
2018-11-21T23:34:53.007Z,185.53
2018-11-21T23:37:34.007Z,177.60
2018-11-21T23:40:15.931Z,152.40
2018-11-21T23:42:56.951Z,200.80
2018-11-21T23:45:38.303Z,167.30
2018-11-21T23:48:19.553Z,273.13
2018-11-21T23:51:00.695Z,266.83
2018-11-21T23:53:41.545Z,217.40
2018-11-21T23:56:22.243Z,279.73
2018-11-21T23:59:02.934Z,376.87
